createdAt,value
2023-03-26T00:00:28.959Z,42.35
2023-03-26T00:01:28.941Z,42.35
2023-03-26T00:02:29.099Z,42.35
2023-03-26T00:03:28.920Z,42.35
2023-03-26T00:04:29.597Z,42.35
2023-03-26T00:05:28.923Z,42.35
2023-03-26T00:06:28.960Z,42.35
2023-03-26T00:07:28.897Z,42.46
2023-03-26T00:08:29.059Z,42.35
2023-03-26T00:09:28.846Z,42.35
2023-03-26T00:10:28.903Z,42.35
2023-03-26T00:12:25.701Z,42.35
2023-03-26T00:13:25.683Z,42.35
2023-03-26T00:14:25.690Z,42.35
2023-03-26T00:15:25.670Z,42.35
2023-03-26T00:16:25.667Z,42.35
2023-03-26T00:17:25.734Z,42.35
2023-03-26T00:18:25.658Z,42.35
2023-03-26T00:19:25.678Z,42.35
2023-03-26T00:20:25.617Z,42.35
2023-03-26T00:21:25.601Z,42.38
2023-03-26T00:22:25.592Z,42.38
2023-03-26T00:23:25.611Z,42.38
2023-03-26T00:24:25.552Z,42.38
2023-03-26T00:25:25.585Z,42.38
2023-03-26T00:26:25.698Z,42.38
2023-03-26T00:27:25.568Z,42.38
2023-03-26T00:28:28.062Z,42.38
2023-03-26T00:29:25.528Z,42.38
2023-03-26T00:30:25.626Z,42.38
2023-03-26T00:31:25.525Z,42.38
2023-03-26T00:32:25.519Z,42.38
2023-03-26T00:33:25.541Z,42.38
2023-03-26T00:34:25.465Z,42.38
2023-03-26T00:35:25.480Z,42.38
2023-03-26T00:36:25.942Z,42.38
2023-03-26T00:37:26.115Z,42.38
2023-03-26T00:38:25.524Z,42.38
2023-03-26T00:39:25.479Z,42.38
2023-03-26T00:40:25.411Z,42.38
2023-03-26T00:41:25.528Z,42.38
2023-03-26T00:42:25.397Z,42.38
2023-03-26T00:43:25.440Z,42.38
2023-03-26T00:44:25.450Z,42.38
2023-03-26T00:45:25.398Z,42.38
2023-03-26T00:46:25.457Z,42.38
2023-03-26T00:47:25.505Z,42.38
2023-03-26T00:48:37.877Z,42.38
2023-03-26T00:49:26.367Z,42.38
2023-03-26T00:50:25.344Z,42.38
2023-03-26T00:51:25.302Z,42.38
2023-03-26T00:52:25.329Z,42.38
2023-03-26T00:53:25.318Z,42.38
2023-03-26T00:54:25.320Z,42.38
2023-03-26T00:55:25.543Z,42.38
2023-03-26T00:56:25.317Z,42.38
2023-03-26T00:57:35.074Z,42.38
2023-03-26T00:58:26.267Z,42.38
2023-03-26T00:59:25.239Z,42.38
2023-03-26T01:00:25.233Z,42.38
2023-03-26T01:01:25.353Z,42.38
2023-03-26T01:02:25.267Z,42.38
2023-03-26T01:03:26.786Z,42.38
2023-03-26T01:04:25.395Z,42.38
2023-03-26T01:05:25.228Z,42.38
2023-03-26T01:06:25.847Z,42.38
2023-03-26T01:07:25.176Z,42.38
2023-03-26T01:08:25.157Z,42.38
2023-03-26T01:09:25.138Z,42.38
2023-03-26T01:10:25.221Z,42.38
2023-03-26T01:11:25.100Z,42.38
2023-03-26T01:12:25.110Z,42.38
2023-03-26T01:13:25.140Z,42.38
2023-03-26T01:14:25.085Z,42.38
2023-03-26T01:15:25.058Z,42.38
2023-03-26T01:16:25.205Z,42.38
2023-03-26T01:17:25.110Z,42.38
2023-03-26T01:18:25.055Z,42.38
2023-03-26T01:19:25.034Z,42.38
2023-03-26T01:20:25.035Z,42.38
2023-03-26T01:21:25.650Z,42.38
2023-03-26T01:22:25.049Z,42.38
2023-03-26T01:23:24.967Z,42.38
2023-03-26T01:24:25.038Z,42.38
2023-03-26T01:25:25.902Z,42.38
2023-03-26T01:26:25.137Z,42.38
2023-03-26T01:27:24.990Z,42.38
2023-03-26T01:28:24.964Z,42.38
2023-03-26T01:29:24.922Z,42.38
2023-03-26T01:30:24.957Z,42.38
2023-03-26T01:31:24.954Z,42.38
2023-03-26T01:32:25.018Z,42.38
2023-03-26T01:33:24.962Z,42.38
2023-03-26T01:34:24.923Z,42.38
2023-03-26T01:35:24.952Z,42.38
2023-03-26T01:36:24.860Z,42.38
2023-03-26T01:37:24.884Z,42.38
2023-03-26T01:38:24.857Z,42.38
2023-03-26T01:39:24.830Z,42.38
2023-03-26T01:40:24.830Z,42.38
2023-03-26T01:41:24.808Z,42.38
2023-03-26T01:42:24.800Z,42.27
2023-03-26T01:43:24.992Z,42.27
2023-03-26T01:44:24.853Z,42.30
2023-03-26T01:45:24.786Z,42.30
2023-03-26T01:46:24.798Z,42.40
2023-03-26T01:47:24.735Z,42.40
2023-03-26T01:48:24.758Z,42.30
2023-03-26T01:49:24.741Z,42.30
2023-03-26T01:50:24.758Z,42.40
2023-03-26T01:51:24.694Z,42.40
2023-03-26T01:52:24.743Z,42.40
2023-03-26T01:53:24.698Z,42.30
2023-03-26T01:54:24.999Z,42.30
2023-03-26T01:55:24.652Z,42.40
2023-03-26T01:56:29.447Z,42.30
2023-03-26T01:57:24.657Z,42.30
2023-03-26T01:58:24.728Z,42.40
2023-03-26T01:59:24.626Z,42.40
2023-03-26T02:00:24.631Z,42.40
2023-03-26T02:01:24.692Z,42.30
2023-03-26T02:02:24.766Z,42.30
2023-03-26T02:03:24.694Z,42.30
2023-03-26T02:04:24.620Z,42.30
2023-03-26T02:05:24.558Z,42.30
2023-03-26T02:06:24.604Z,42.40
2023-03-26T02:07:24.553Z,42.40
2023-03-26T02:08:25.523Z,42.40
2023-03-26T02:09:24.523Z,42.30
2023-03-26T02:10:26.247Z,42.30
2023-03-26T02:11:33.585Z,42.30
2023-03-26T02:12:25.505Z,42.30
2023-03-26T02:13:24.519Z,42.30
2023-03-26T02:14:24.511Z,42.40
2023-03-26T02:15:24.458Z,42.30
2023-03-26T02:16:24.539Z,42.30
2023-03-26T02:17:24.624Z,42.30
2023-03-26T02:18:24.447Z,42.30
2023-03-26T02:19:24.447Z,42.30
2023-03-26T02:20:24.440Z,42.30
2023-03-26T02:21:24.414Z,42.30
2023-03-26T02:22:24.450Z,42.30
2023-03-26T02:23:24.389Z,42.30
2023-03-26T02:24:24.390Z,42.30
2023-03-26T02:25:24.407Z,42.30
2023-03-26T02:26:24.439Z,42.30
2023-03-26T02:27:24.344Z,42.30
2023-03-26T02:28:24.424Z,42.30
2023-03-26T02:29:24.351Z,42.30
2023-03-26T02:30:24.303Z,42.30
2023-03-26T02:31:24.399Z,42.30
2023-03-26T02:32:24.311Z,42.30
2023-03-26T02:33:24.278Z,42.30
2023-03-26T02:34:24.293Z,42.30
2023-03-26T02:35:24.314Z,42.30
2023-03-26T02:36:24.373Z,42.30
2023-03-26T02:37:24.284Z,42.30
2023-03-26T02:38:24.212Z,42.30
2023-03-26T02:39:24.315Z,42.30
2023-03-26T02:40:24.212Z,42.30
2023-03-26T02:41:24.602Z,42.30
2023-03-26T02:42:24.265Z,42.30
2023-03-26T02:43:24.190Z,42.30
2023-03-26T02:44:24.169Z,42.30
2023-03-26T02:45:24.218Z,42.30
2023-03-26T02:46:24.256Z,42.30
2023-03-26T02:47:25.063Z,42.30
2023-03-26T02:48:24.130Z,42.30
2023-03-26T02:49:24.148Z,42.30
2023-03-26T02:50:24.118Z,42.30
2023-03-26T02:51:24.130Z,42.30
2023-03-26T02:52:24.140Z,42.30
2023-03-26T02:53:24.321Z,42.30
2023-03-26T02:54:24.136Z,42.30
2023-03-26T02:55:24.064Z,42.30
2023-03-26T02:56:24.082Z,42.30
2023-03-26T02:57:24.567Z,42.30
2023-03-26T02:58:24.053Z,42.30
2023-03-26T02:59:24.001Z,42.30
2023-03-26T03:00:24.045Z,42.30
2023-03-26T03:01:24.036Z,42.30
2023-03-26T03:02:23.990Z,42.30
2023-03-26T03:03:24.029Z,42.30
2023-03-26T03:04:23.964Z,42.30
2023-03-26T03:05:23.952Z,42.30
2023-03-26T03:06:23.996Z,42.30
2023-03-26T03:07:23.945Z,42.30
2023-03-26T03:08:23.953Z,42.30
2023-03-26T03:09:25.694Z,42.30
2023-03-26T03:10:23.982Z,42.30
2023-03-26T03:11:23.907Z,42.30
2023-03-26T03:12:23.900Z,42.30
2023-03-26T03:13:23.862Z,42.30
2023-03-26T03:14:23.906Z,42.30
2023-03-26T03:15:23.897Z,42.30
2023-03-26T03:16:23.887Z,42.30
2023-03-26T03:17:23.865Z,42.30
2023-03-26T03:18:23.839Z,42.30
2023-03-26T03:19:23.813Z,42.30
2023-03-26T03:20:23.832Z,42.30
2023-03-26T03:21:23.829Z,42.30
2023-03-26T03:22:23.802Z,42.30
2023-03-26T03:23:23.770Z,42.30
2023-03-26T03:24:23.771Z,42.30
2023-03-26T03:25:23.765Z,42.30
2023-03-26T03:26:23.920Z,42.30
2023-03-26T03:27:23.797Z,42.30
2023-03-26T03:28:23.726Z,42.30
2023-03-26T03:29:23.764Z,42.30
2023-03-26T03:30:23.769Z,42.30
2023-03-26T03:31:23.728Z,42.30
2023-03-26T03:32:24.394Z,42.32
2023-03-26T03:33:23.664Z,42.32
2023-03-26T03:34:23.707Z,42.32
2023-03-26T03:35:23.696Z,42.32
2023-03-26T03:36:23.654Z,42.32
2023-03-26T03:37:23.651Z,42.32
2023-03-26T03:38:23.661Z,42.32
2023-03-26T03:39:23.648Z,42.32
2023-03-26T03:40:23.834Z,42.32
2023-03-26T03:41:23.626Z,42.32
2023-03-26T03:42:23.614Z,42.32
2023-03-26T03:43:23.568Z,42.32
2023-03-26T03:44:24.078Z,42.32
2023-03-26T03:45:23.584Z,42.32
2023-03-26T03:46:23.592Z,42.32
2023-03-26T03:47:23.648Z,42.32
2023-03-26T03:48:23.697Z,42.32
2023-03-26T03:49:23.550Z,42.32
2023-03-26T03:50:23.537Z,42.32
2023-03-26T03:51:23.498Z,42.32
2023-03-26T03:52:23.496Z,42.32
2023-03-26T03:53:23.511Z,42.32
2023-03-26T03:54:23.561Z,42.32
2023-03-26T03:55:23.450Z,42.32
2023-03-26T03:56:23.514Z,42.32
2023-03-26T03:57:23.427Z,42.32
2023-03-26T03:58:23.450Z,42.32
2023-03-26T03:59:23.446Z,42.32
2023-03-26T04:00:23.470Z,42.32
2023-03-26T04:01:23.457Z,42.32
2023-03-26T04:02:23.512Z,42.32
2023-03-26T04:03:33.978Z,42.32
2023-03-26T04:04:24.431Z,42.32
2023-03-26T04:05:23.351Z,42.32
2023-03-26T04:06:23.371Z,42.32
2023-03-26T04:07:23.330Z,42.32
2023-03-26T04:08:23.505Z,42.32
2023-03-26T04:09:23.316Z,42.32
2023-03-26T04:10:23.295Z,42.32
2023-03-26T04:11:23.290Z,42.32
2023-03-26T04:12:23.332Z,42.21
2023-03-26T04:13:23.284Z,42.21
2023-03-26T04:14:24.027Z,42.32
2023-03-26T04:15:23.246Z,42.32
2023-03-26T04:16:23.282Z,42.32
2023-03-26T04:17:23.293Z,42.21
2023-03-26T04:18:23.918Z,42.32
2023-03-26T04:19:23.220Z,42.32
2023-03-26T04:20:23.268Z,42.32
2023-03-26T04:21:23.208Z,42.32
2023-03-26T04:22:23.201Z,42.21
2023-03-26T04:23:23.176Z,42.21
2023-03-26T04:24:23.160Z,42.32
2023-03-26T04:25:23.180Z,42.32
2023-03-26T04:26:23.286Z,42.32
2023-03-26T04:27:23.169Z,42.21
2023-03-26T04:28:23.132Z,42.32
2023-03-26T04:29:23.090Z,42.32
2023-03-26T04:30:23.094Z,42.32
2023-03-26T04:31:23.130Z,42.32
2023-03-26T04:32:23.112Z,42.32
2023-03-26T04:33:23.058Z,42.21
2023-03-26T04:34:23.103Z,42.21
2023-03-26T04:35:23.146Z,42.21
2023-03-26T04:36:23.050Z,42.32
2023-03-26T04:37:24.798Z,42.21
2023-03-26T04:38:23.037Z,42.32
2023-03-26T04:39:23.028Z,42.21
2023-03-26T04:40:23.042Z,42.32
2023-03-26T04:41:22.996Z,42.32
2023-03-26T04:42:23.057Z,42.32
2023-03-26T04:43:22.978Z,42.32
2023-03-26T04:44:23.005Z,42.32
2023-03-26T04:45:23.167Z,42.32
2023-03-26T04:46:22.970Z,42.32
2023-03-26T04:47:23.695Z,42.32
2023-03-26T04:48:22.935Z,42.32
2023-03-26T04:49:22.969Z,42.21
2023-03-26T04:50:22.935Z,42.32
2023-03-26T04:51:22.866Z,42.32
2023-03-26T04:52:22.945Z,42.21
2023-03-26T04:53:22.874Z,42.32
2023-03-26T04:54:22.899Z,42.21
2023-03-26T04:55:23.103Z,42.32
2023-03-26T04:56:22.898Z,42.32
2023-03-26T04:57:22.799Z,42.32
2023-03-26T04:58:22.823Z,42.21
2023-03-26T04:59:22.840Z,42.32
2023-03-26T05:00:22.793Z,42.21
2023-03-26T05:01:22.891Z,42.32
2023-03-26T05:02:22.771Z,42.32
2023-03-26T05:03:22.814Z,42.21
2023-03-26T05:04:22.789Z,42.21
2023-03-26T05:05:22.766Z,42.32
2023-03-26T05:06:22.758Z,42.32
2023-03-26T05:07:22.758Z,42.32
2023-03-26T05:08:22.750Z,42.32
2023-03-26T05:09:22.717Z,42.32
2023-03-26T05:10:22.720Z,42.32
2023-03-26T05:11:23.103Z,42.21
2023-03-26T05:13:19.496Z,42.32
2023-03-26T05:14:19.523Z,42.32
2023-03-26T05:15:19.480Z,42.21
2023-03-26T05:16:19.532Z,42.32
2023-03-26T05:17:19.437Z,42.21
2023-03-26T05:18:19.463Z,42.32
2023-03-26T05:19:19.466Z,42.21
2023-03-26T05:20:19.436Z,42.32
2023-03-26T05:21:19.406Z,42.32
2023-03-26T05:22:19.403Z,42.32
2023-03-26T05:23:19.382Z,42.21
2023-03-26T05:24:19.318Z,42.32
2023-03-26T05:25:19.337Z,42.32
2023-03-26T05:26:19.375Z,42.32
2023-03-26T05:27:19.318Z,42.21
2023-03-26T05:28:19.300Z,42.21
2023-03-26T05:29:20.258Z,42.21
2023-03-26T05:30:19.274Z,42.32
2023-03-26T05:31:19.285Z,42.32
2023-03-26T05:32:19.286Z,42.32
2023-03-26T05:33:19.368Z,42.32
2023-03-26T05:34:19.250Z,42.32
2023-03-26T05:35:19.281Z,42.32
2023-03-26T05:36:19.318Z,42.44
2023-03-26T05:37:19.205Z,42.41
2023-03-26T05:38:19.200Z,42.44
2023-03-26T05:39:19.233Z,42.41
2023-03-26T05:40:19.163Z,42.41
2023-03-26T05:41:19.167Z,42.41
2023-03-26T05:42:19.171Z,42.44
2023-03-26T05:43:19.169Z,42.44
2023-03-26T05:44:19.138Z,42.44
2023-03-26T05:45:19.179Z,42.44
2023-03-26T05:46:19.191Z,42.44
2023-03-26T05:47:19.135Z,42.44
2023-03-26T05:48:19.092Z,42.41
2023-03-26T05:49:19.106Z,42.44
2023-03-26T05:50:19.078Z,42.44
2023-03-26T05:51:19.091Z,42.44
2023-03-26T05:52:19.082Z,42.44
2023-03-26T05:53:19.053Z,42.44
2023-03-26T05:54:19.023Z,42.44
2023-03-26T05:55:19.037Z,42.44
2023-03-26T05:56:19.035Z,42.44
2023-03-26T05:57:19.032Z,42.54
2023-03-26T05:58:18.977Z,42.54
2023-03-26T05:59:18.992Z,42.44
2023-03-26T06:00:18.982Z,42.54
2023-03-26T06:01:18.970Z,42.54
2023-03-26T06:02:18.941Z,42.54
2023-03-26T06:03:19.253Z,42.54
2023-03-26T06:04:19.067Z,42.54
2023-03-26T06:05:18.930Z,42.54
2023-03-26T06:06:18.897Z,42.54
2023-03-26T06:07:18.930Z,42.54
2023-03-26T06:08:18.876Z,42.44
2023-03-26T06:09:18.905Z,42.44
2023-03-26T06:10:18.958Z,42.44
2023-03-26T06:11:18.850Z,42.44
2023-03-26T06:12:19.481Z,42.44
2023-03-26T06:13:18.836Z,42.44
2023-03-26T06:14:19.061Z,42.44
2023-03-26T06:15:18.813Z,42.44
2023-03-26T06:16:27.332Z,42.44
2023-03-26T06:17:19.822Z,42.44
2023-03-26T06:18:18.810Z,42.44
2023-03-26T06:19:18.801Z,42.44
2023-03-26T06:20:18.965Z,42.44
2023-03-26T06:21:18.764Z,42.54
2023-03-26T06:22:18.752Z,42.54
2023-03-26T06:23:18.750Z,42.54
2023-03-26T06:24:18.707Z,42.52
2023-03-26T06:25:18.709Z,42.52
2023-03-26T06:26:18.786Z,42.52
2023-03-26T06:27:18.709Z,42.52
2023-03-26T06:28:18.686Z,42.52
2023-03-26T06:29:18.687Z,42.52
2023-03-26T06:30:18.643Z,42.52
2023-03-26T06:31:18.687Z,42.52
2023-03-26T06:32:20.500Z,42.41
2023-03-26T06:33:18.630Z,42.41
2023-03-26T06:34:18.608Z,42.41
2023-03-26T06:35:18.630Z,42.41
2023-03-26T06:36:18.650Z,42.41
2023-03-26T06:37:18.597Z,42.41
2023-03-26T06:38:19.090Z,42.41
2023-03-26T06:39:18.586Z,42.41
2023-03-26T06:40:18.583Z,42.41
2023-03-26T06:41:18.571Z,42.41
2023-03-26T06:42:18.527Z,42.41
2023-03-26T06:43:18.577Z,42.40
2023-03-26T06:44:18.529Z,42.40
2023-03-26T06:45:18.521Z,42.40
2023-03-26T06:46:18.569Z,42.40
2023-03-26T06:47:18.506Z,42.40
2023-03-26T06:48:18.469Z,42.40
2023-03-26T06:49:20.160Z,42.40
2023-03-26T06:50:18.462Z,42.40
2023-03-26T06:51:18.452Z,42.40
2023-03-26T06:52:18.444Z,42.40
2023-03-26T06:53:18.442Z,42.40
2023-03-26T06:54:18.401Z,42.40
2023-03-26T06:55:20.112Z,42.40
2023-03-26T06:56:18.473Z,42.40
2023-03-26T06:57:18.392Z,42.40
2023-03-26T06:58:18.400Z,42.40
2023-03-26T06:59:18.393Z,42.40
2023-03-26T07:00:18.370Z,42.40
2023-03-26T07:01:18.421Z,42.38
2023-03-26T07:02:18.327Z,42.38
2023-03-26T07:03:18.685Z,42.38
2023-03-26T07:04:18.325Z,42.38
2023-03-26T07:05:18.341Z,42.38
2023-03-26T07:06:18.292Z,42.38
2023-03-26T07:07:18.287Z,42.27
2023-03-26T07:08:18.271Z,42.27
2023-03-26T07:09:18.273Z,42.27
2023-03-26T07:10:18.285Z,42.27
2023-03-26T07:11:18.271Z,42.27
2023-03-26T07:12:18.248Z,42.27
2023-03-26T07:13:19.210Z,42.27
2023-03-26T07:14:19.969Z,42.27
2023-03-26T07:15:18.234Z,42.27
2023-03-26T07:16:18.226Z,42.27
2023-03-26T07:17:18.209Z,42.27
2023-03-26T07:18:18.175Z,42.27
2023-03-26T07:19:18.208Z,42.27
2023-03-26T07:20:18.197Z,42.27
2023-03-26T07:21:18.147Z,42.27
2023-03-26T07:22:18.139Z,42.27
2023-03-26T07:23:18.143Z,42.25
2023-03-26T07:24:18.104Z,42.25
2023-03-26T07:25:18.136Z,42.25
2023-03-26T07:26:18.097Z,42.25
2023-03-26T07:27:18.124Z,42.25
2023-03-26T07:28:18.078Z,42.25
2023-03-26T07:29:18.096Z,42.25
2023-03-26T07:30:18.069Z,42.25
2023-03-26T07:31:18.163Z,42.25
2023-03-26T07:32:19.111Z,42.25
2023-03-26T07:33:18.035Z,42.25
2023-03-26T07:34:18.048Z,42.25
2023-03-26T07:35:18.040Z,42.25
2023-03-26T07:36:18.019Z,42.16
2023-03-26T07:37:19.720Z,42.16
2023-03-26T07:38:17.992Z,42.25
2023-03-26T07:39:17.993Z,42.16
2023-03-26T07:40:18.004Z,42.16
2023-03-26T07:41:17.960Z,42.16
2023-03-26T07:42:18.214Z,42.16
2023-03-26T07:43:18.601Z,42.16
2023-03-26T07:44:17.905Z,42.16
2023-03-26T07:45:17.947Z,42.16
2023-03-26T07:46:17.949Z,42.16
2023-03-26T07:47:17.937Z,42.16
2023-03-26T07:48:17.886Z,42.16
2023-03-26T07:49:17.910Z,42.16
2023-03-26T07:50:18.776Z,42.16
2023-03-26T07:51:17.861Z,42.16
2023-03-26T07:52:17.826Z,42.16
2023-03-26T07:53:17.843Z,42.16
2023-03-26T07:54:17.833Z,42.03
2023-03-26T07:55:17.826Z,42.05
2023-03-26T07:56:17.904Z,42.16
2023-03-26T07:57:17.841Z,42.13
2023-03-26T07:58:17.812Z,42.03
2023-03-26T07:59:17.808Z,42.03
2023-03-26T08:00:17.756Z,42.03
2023-03-26T08:01:17.763Z,42.03
2023-03-26T08:02:17.725Z,42.03
2023-03-26T08:03:17.831Z,42.03
2023-03-26T08:04:24.945Z,42.03
2023-03-26T08:05:19.177Z,42.03
2023-03-26T08:06:17.680Z,42.03
2023-03-26T08:07:17.694Z,42.03
2023-03-26T08:08:17.670Z,42.03
2023-03-26T08:09:17.669Z,42.03
2023-03-26T08:10:17.654Z,42.03
2023-03-26T08:11:17.678Z,42.03
2023-03-26T08:12:17.628Z,42.03
2023-03-26T08:13:17.644Z,42.03
2023-03-26T08:14:17.613Z,42.03
2023-03-26T08:15:17.647Z,42.03
2023-03-26T08:16:17.622Z,42.03
2023-03-26T08:17:17.634Z,42.03
2023-03-26T08:18:17.559Z,42.03
2023-03-26T08:19:17.567Z,42.03
2023-03-26T08:20:17.538Z,42.03
2023-03-26T08:21:17.550Z,42.03
2023-03-26T08:22:17.524Z,42.03
2023-03-26T08:23:17.583Z,42.03
2023-03-26T08:24:17.517Z,42.03
2023-03-26T08:25:17.515Z,42.03
2023-03-26T08:26:17.529Z,42.03
2023-03-26T08:27:17.493Z,41.93
2023-03-26T08:28:17.484Z,42.03
2023-03-26T08:29:17.488Z,42.03
2023-03-26T08:30:17.451Z,42.03
2023-03-26T08:31:17.514Z,42.03
2023-03-26T08:32:17.426Z,42.03
2023-03-26T08:33:17.418Z,42.03
2023-03-26T08:34:17.419Z,42.03
2023-03-26T08:35:17.463Z,42.03
2023-03-26T08:36:17.389Z,41.93
2023-03-26T08:37:17.668Z,41.93
2023-03-26T08:38:17.375Z,41.93
2023-03-26T08:39:17.363Z,42.03
2023-03-26T08:40:17.391Z,41.93
2023-03-26T08:41:18.310Z,42.03
2023-03-26T08:42:17.331Z,42.03
2023-03-26T08:43:17.358Z,42.03
2023-03-26T08:44:17.296Z,42.03
2023-03-26T08:45:17.303Z,42.03
2023-03-26T08:46:17.325Z,42.03
2023-03-26T08:47:17.314Z,42.03
2023-03-26T08:48:17.299Z,42.03
2023-03-26T08:49:17.274Z,42.03
2023-03-26T08:50:17.290Z,42.03
2023-03-26T08:51:17.253Z,42.03
2023-03-26T08:52:17.260Z,42.03
2023-03-26T08:53:17.245Z,42.03
2023-03-26T08:54:17.697Z,42.03
2023-03-26T08:55:17.205Z,42.03
2023-03-26T08:56:17.265Z,41.93
2023-03-26T08:57:17.275Z,42.03
2023-03-26T08:58:17.210Z,42.03
2023-03-26T08:59:17.170Z,42.03
2023-03-26T09:00:17.161Z,42.03
2023-03-26T09:01:17.168Z,42.03
2023-03-26T09:02:17.132Z,42.03
2023-03-26T09:03:17.134Z,42.03
2023-03-26T09:04:17.172Z,42.03
2023-03-26T09:05:17.126Z,42.03
2023-03-26T09:06:17.099Z,42.03
2023-03-26T09:07:17.080Z,42.03
2023-03-26T09:08:17.102Z,42.03
2023-03-26T09:09:19.179Z,42.03
2023-03-26T09:10:17.052Z,42.03
2023-03-26T09:11:17.068Z,42.03
2023-03-26T09:12:17.029Z,42.03
2023-03-26T09:13:17.200Z,42.03
2023-03-26T09:14:17.015Z,42.03
2023-03-26T09:15:17.005Z,42.13
2023-03-26T09:16:17.022Z,42.03
2023-03-26T09:17:16.996Z,42.03
2023-03-26T09:18:16.954Z,42.03
2023-03-26T09:19:16.985Z,42.03
2023-03-26T09:20:16.956Z,42.03
2023-03-26T09:21:16.946Z,42.03
2023-03-26T09:22:16.941Z,42.03
2023-03-26T09:23:16.949Z,42.13
2023-03-26T09:24:17.150Z,42.13
2023-03-26T09:25:16.911Z,42.03
2023-03-26T09:26:16.932Z,42.03
2023-03-26T09:27:16.920Z,42.03
2023-03-26T09:28:16.858Z,42.03
2023-03-26T09:29:16.934Z,42.03
2023-03-26T09:30:16.842Z,42.13
2023-03-26T09:31:16.874Z,42.03
2023-03-26T09:32:16.824Z,42.03
2023-03-26T09:33:16.835Z,42.13
2023-03-26T09:34:16.809Z,42.03
2023-03-26T09:35:16.880Z,42.03
2023-03-26T09:36:16.798Z,42.03
2023-03-26T09:37:16.838Z,42.03
2023-03-26T09:38:16.854Z,42.03
2023-03-26T09:39:16.751Z,42.03
2023-03-26T09:40:16.779Z,42.03
2023-03-26T09:41:16.754Z,42.03
2023-03-26T09:42:16.740Z,42.03
2023-03-26T09:43:16.717Z,42.03
2023-03-26T09:44:16.726Z,42.03
2023-03-26T09:45:16.787Z,42.13
2023-03-26T09:46:16.807Z,42.13
2023-03-26T09:47:16.671Z,42.03
2023-03-26T09:48:16.704Z,42.03
2023-03-26T09:49:16.657Z,42.13
2023-03-26T09:50:16.683Z,42.13
2023-03-26T09:51:18.390Z,42.13
2023-03-26T09:52:16.632Z,42.13
2023-03-26T09:53:16.631Z,42.13
2023-03-26T09:54:16.609Z,42.13
2023-03-26T09:55:16.587Z,42.13
2023-03-26T09:56:16.696Z,42.03
2023-03-26T09:57:16.718Z,42.13
2023-03-26T09:58:16.588Z,42.13
2023-03-26T09:59:16.560Z,42.13
2023-03-26T10:00:16.580Z,42.13
2023-03-26T10:01:16.596Z,42.13
2023-03-26T10:02:16.550Z,42.13
2023-03-26T10:03:16.544Z,42.13
2023-03-26T10:04:16.546Z,42.13
2023-03-26T10:05:16.491Z,42.13
2023-03-26T10:06:16.535Z,42.24
2023-03-26T10:07:16.501Z,42.13
2023-03-26T10:08:16.499Z,42.24
2023-03-26T10:09:16.488Z,42.13
2023-03-26T10:10:16.453Z,42.13
2023-03-26T10:11:16.456Z,42.13
2023-03-26T10:12:16.446Z,42.13
2023-03-26T10:14:13.106Z,42.13
2023-03-26T10:15:13.117Z,42.13
2023-03-26T10:16:13.094Z,42.13
2023-03-26T10:17:13.089Z,42.24
2023-03-26T10:18:27.718Z,42.13
2023-03-26T10:19:14.063Z,42.24
2023-03-26T10:20:13.094Z,42.24
2023-03-26T10:21:13.043Z,42.24
2023-03-26T10:22:13.024Z,42.24
2023-03-26T10:23:13.035Z,42.24
2023-03-26T10:24:13.106Z,42.24
2023-03-26T10:25:12.995Z,42.24
2023-03-26T10:26:13.011Z,42.24
2023-03-26T10:27:17.806Z,42.24
2023-03-26T10:28:12.959Z,42.24
2023-03-26T10:29:12.986Z,42.33
2023-03-26T10:30:12.953Z,42.24
2023-03-26T10:31:12.990Z,42.33
2023-03-26T10:32:12.910Z,42.24
2023-03-26T10:33:12.915Z,42.24
2023-03-26T10:34:28.506Z,42.33
2023-03-26T10:35:13.891Z,42.33
2023-03-26T10:36:12.875Z,42.33
2023-03-26T10:37:12.890Z,42.24
2023-03-26T10:38:12.834Z,42.24
2023-03-26T10:39:36.284Z,42.24
2023-03-26T10:40:13.907Z,42.24
2023-03-26T10:41:12.825Z,42.24
2023-03-26T10:42:12.806Z,42.33
2023-03-26T10:43:12.898Z,42.33
2023-03-26T10:44:12.777Z,42.33
2023-03-26T10:45:12.817Z,42.33
2023-03-26T10:46:13.218Z,42.24
2023-03-26T10:47:12.806Z,42.24
2023-03-26T10:48:12.793Z,42.24
2023-03-26T10:49:12.737Z,42.24
2023-03-26T10:50:12.768Z,42.33
2023-03-26T10:51:12.712Z,42.24
2023-03-26T10:52:12.746Z,42.24
2023-03-26T10:53:12.696Z,42.33
2023-03-26T10:54:12.697Z,42.24
2023-03-26T10:55:12.674Z,42.24
2023-03-26T10:56:12.675Z,42.24
2023-03-26T10:57:12.759Z,42.24
2023-03-26T10:58:12.694Z,42.24
2023-03-26T10:59:12.636Z,42.33
2023-03-26T11:00:12.642Z,42.24
2023-03-26T11:01:12.640Z,42.24
2023-03-26T11:02:12.614Z,42.24
2023-03-26T11:03:12.624Z,42.24
2023-03-26T11:04:12.608Z,42.24
2023-03-26T11:05:12.597Z,42.24
2023-03-26T11:06:12.576Z,42.24
2023-03-26T11:07:12.592Z,42.24
2023-03-26T11:08:12.583Z,42.24
2023-03-26T11:09:12.544Z,42.24
2023-03-26T11:10:12.553Z,42.24
2023-03-26T11:11:12.518Z,42.33
2023-03-26T11:12:26.738Z,42.33
2023-03-26T11:13:13.649Z,42.33
2023-03-26T11:14:15.157Z,42.33
2023-03-26T11:15:13.477Z,42.33
2023-03-26T11:16:12.495Z,42.33
2023-03-26T11:17:15.032Z,42.33
2023-03-26T11:18:13.578Z,42.33
2023-03-26T11:19:12.440Z,42.24
2023-03-26T11:20:12.431Z,42.24
2023-03-26T11:21:18.974Z,42.24
2023-03-26T11:22:13.421Z,42.24
2023-03-26T11:23:12.398Z,42.24
2023-03-26T11:24:12.407Z,42.24
2023-03-26T11:25:12.401Z,42.33
2023-03-26T11:26:12.378Z,42.33
2023-03-26T11:27:14.889Z,42.33
2023-03-26T11:28:13.026Z,42.24
2023-03-26T11:29:32.835Z,42.24
2023-03-26T11:30:13.335Z,42.33
2023-03-26T11:31:12.307Z,42.33
2023-03-26T11:32:12.329Z,42.24
2023-03-26T11:33:12.304Z,42.24
2023-03-26T11:34:12.279Z,42.33
2023-03-26T11:35:12.291Z,42.33
2023-03-26T11:36:12.353Z,42.24
2023-03-26T11:37:12.250Z,42.24
2023-03-26T11:38:12.263Z,42.24
2023-03-26T11:39:12.222Z,42.24
2023-03-26T11:40:13.215Z,42.24
2023-03-26T11:41:12.225Z,42.24
2023-03-26T11:42:12.218Z,42.24
2023-03-26T11:43:12.212Z,42.24
2023-03-26T11:44:12.191Z,42.24
2023-03-26T11:45:12.152Z,42.24
2023-03-26T11:46:12.208Z,42.24
2023-03-26T11:47:12.152Z,42.24
2023-03-26T11:48:12.132Z,42.24
2023-03-26T11:49:12.165Z,42.24
2023-03-26T11:50:12.108Z,42.24
2023-03-26T11:51:12.118Z,42.24
2023-03-26T11:52:12.130Z,42.24
2023-03-26T11:53:12.086Z,42.24
2023-03-26T11:54:12.243Z,42.13
2023-03-26T11:55:12.083Z,42.24
2023-03-26T11:56:12.084Z,42.24
2023-03-26T11:57:12.162Z,42.24
2023-03-26T11:58:12.024Z,42.13
2023-03-26T11:59:12.029Z,42.13
2023-03-26T12:00:12.027Z,42.13
2023-03-26T12:01:12.015Z,42.13
2023-03-26T12:02:12.090Z,42.13
2023-03-26T12:03:12.051Z,42.13
2023-03-26T12:04:12.060Z,42.13
2023-03-26T12:05:11.987Z,42.24
2023-03-26T12:06:11.947Z,42.24
2023-03-26T12:07:11.948Z,42.24
2023-03-26T12:08:11.926Z,42.24
2023-03-26T12:09:11.916Z,42.13
2023-03-26T12:10:19.300Z,42.13
2023-03-26T12:11:12.900Z,42.13
2023-03-26T12:12:11.869Z,42.13
2023-03-26T12:13:11.874Z,42.13
2023-03-26T12:14:11.847Z,42.13
2023-03-26T12:15:11.877Z,42.24
2023-03-26T12:16:11.876Z,42.13
2023-03-26T12:17:11.896Z,42.13
2023-03-26T12:18:11.830Z,42.13
2023-03-26T12:19:11.817Z,42.24
2023-03-26T12:20:11.804Z,42.13
2023-03-26T12:21:11.894Z,42.24
2023-03-26T12:22:11.782Z,42.24
2023-03-26T12:23:11.776Z,42.24
2023-03-26T12:24:11.824Z,42.24
2023-03-26T12:25:11.763Z,42.24
2023-03-26T12:26:12.700Z,42.24
2023-03-26T12:27:11.752Z,42.24
2023-03-26T12:28:11.703Z,42.24
2023-03-26T12:29:11.716Z,42.24
2023-03-26T12:30:12.368Z,42.24
2023-03-26T12:31:11.746Z,42.24
2023-03-26T12:32:11.676Z,42.33
2023-03-26T12:33:11.742Z,42.24
2023-03-26T12:34:11.674Z,42.24
2023-03-26T12:35:11.658Z,42.24
2023-03-26T12:36:11.670Z,42.24
2023-03-26T12:37:11.645Z,42.24
2023-03-26T12:38:11.651Z,42.24
2023-03-26T12:39:16.425Z,42.24
2023-03-26T12:40:16.149Z,42.24
2023-03-26T12:44:42.353Z,42.24
2023-03-26T12:44:43.454Z,42.24
2023-03-26T12:44:49.273Z,42.24
2023-03-26T12:44:49.933Z,42.24
2023-03-26T12:45:12.607Z,42.24
2023-03-26T12:47:55.260Z,42.24
2023-03-26T12:47:58.450Z,42.24
2023-03-26T12:48:12.596Z,42.24
2023-03-26T12:49:11.683Z,42.24
2023-03-26T12:50:11.480Z,42.24
2023-03-26T12:51:11.488Z,42.24
2023-03-26T12:52:11.506Z,42.24
2023-03-26T12:53:11.499Z,42.24
2023-03-26T12:54:11.457Z,42.13
2023-03-26T12:55:12.013Z,42.13